createdAt,value
2017-11-08T00:01:05.414Z,0
2017-11-08T00:02:27.242Z,0
2017-11-08T00:03:49.101Z,0
2017-11-08T00:05:11.273Z,0
2017-11-08T00:06:33.902Z,0
2017-11-08T00:07:55.763Z,0
2017-11-08T00:09:17.621Z,0
2017-11-08T00:10:39.783Z,0
2017-11-08T00:12:01.956Z,0
2017-11-08T00:13:23.785Z,0
2017-11-08T00:14:45.660Z,0
2017-11-08T00:16:07.834Z,0
2017-11-08T00:17:30.001Z,0
2017-11-08T00:18:52.671Z,0
2017-11-08T00:20:14.204Z,0
2017-11-08T00:21:35.712Z,0
2017-11-08T00:22:57.880Z,0
2017-11-08T00:24:20.385Z,0
2017-11-08T00:25:42.884Z,0
2017-11-08T00:27:05.074Z,0
2017-11-08T00:28:27.242Z,0
2017-11-08T00:29:49.124Z,0
2017-11-08T00:31:10.952Z,0
2017-11-08T00:32:33.463Z,0
2017-11-08T00:33:55.362Z,0
2017-11-08T00:35:17.554Z,0
2017-11-08T00:36:40.047Z,0
2017-11-08T00:38:02.540Z,0
2017-11-08T00:39:24.068Z,0
2017-11-08T00:40:46.275Z,0
2017-11-08T00:42:08.881Z,0
2017-11-08T00:43:30.735Z,0
2017-11-08T00:44:53.394Z,0
2017-11-08T00:46:15.905Z,0
2017-11-08T00:47:38.071Z,0
2017-11-08T00:48:59.631Z,0
2017-11-08T00:50:21.474Z,0
2017-11-08T00:51:44.116Z,0
2017-11-08T00:53:06.300Z,0
2017-11-08T00:54:28.833Z,0
2017-11-08T00:55:51.012Z,0
2017-11-08T00:57:13.234Z,0
2017-11-08T00:58:35.456Z,0
2017-11-08T00:59:57.646Z,0
2017-11-08T01:01:19.853Z,0
2017-11-08T01:02:41.698Z,0
2017-11-08T01:04:03.549Z,0
2017-11-08T01:05:25.703Z,0
2017-11-08T01:06:47.532Z,0
2017-11-08T01:08:09.393Z,0
2017-11-08T01:09:30.902Z,0
2017-11-08T01:10:52.407Z,0
2017-11-08T01:12:14.583Z,0
2017-11-08T01:13:36.734Z,0
2017-11-08T01:14:58.563Z,0
2017-11-08T01:16:20.760Z,0
2017-11-08T01:17:42.271Z,0
2017-11-08T01:19:03.790Z,0
2017-11-08T01:20:25.692Z,0
2017-11-08T01:21:47.858Z,0
2017-11-08T01:23:09.415Z,0
2017-11-08T01:24:31.933Z,0
2017-11-08T01:25:53.770Z,0
2017-11-08T01:27:16.303Z,0
2017-11-08T01:28:38.165Z,0
2017-11-08T01:30:00.023Z,0
2017-11-08T01:31:22.633Z,0
2017-11-08T01:32:45.145Z,0
2017-11-08T01:34:07.564Z,0
2017-11-08T01:35:29.410Z,0
2017-11-08T01:36:51.306Z,0
2017-11-08T01:38:13.623Z,0
2017-11-08T01:39:35.773Z,0
2017-11-08T01:40:57.615Z,0
2017-11-08T01:42:19.797Z,0
2017-11-08T01:43:42.308Z,0
2017-11-08T01:45:04.515Z,0
2017-11-08T01:46:26.023Z,0
2017-11-08T01:47:47.874Z,0
2017-11-08T01:49:10.143Z,0
2017-11-08T01:50:31.977Z,0
2017-11-08T01:51:54.136Z,0
2017-11-08T01:53:16.720Z,0
2017-11-08T01:54:38.275Z,0
2017-11-08T01:56:00.177Z,0
2017-11-08T01:57:22.393Z,0
2017-11-08T01:58:43.885Z,0
2017-11-08T02:00:06.057Z,0
2017-11-08T02:01:28.227Z,0
2017-11-08T02:02:50.153Z,0
2017-11-08T02:04:12.311Z,0
2017-11-08T02:05:34.546Z,0
2017-11-08T02:06:56.543Z,0
2017-11-08T02:08:18.050Z,0
2017-11-08T02:09:39.875Z,0
2017-11-08T02:11:02.049Z,0
2017-11-08T02:12:24.154Z,0
2017-11-08T02:13:45.682Z,0
2017-11-08T02:15:07.525Z,0
2017-11-08T02:16:29.113Z,0
2017-11-08T02:17:51.280Z,0
2017-11-08T02:19:13.465Z,0
2017-11-08T02:20:35.313Z,0
2017-11-08T02:21:57.316Z,0
2017-11-08T02:23:18.917Z,0
2017-11-08T02:24:40.823Z,0
2017-11-08T02:26:03.028Z,0
2017-11-08T02:27:24.894Z,0
2017-11-08T02:28:46.645Z,0
2017-11-08T02:30:08.937Z,0
2017-11-08T02:31:30.780Z,0
2017-11-08T02:32:52.314Z,0
2017-11-08T02:34:14.458Z,0
2017-11-08T02:35:36.449Z,0
2017-11-08T02:36:58.608Z,0
2017-11-08T02:38:20.475Z,0
2017-11-08T02:39:42.945Z,0
2017-11-08T02:41:05.148Z,0
2017-11-08T02:42:27.064Z,0
2017-11-08T02:43:48.575Z,0
2017-11-08T02:45:10.419Z,0
2017-11-08T02:46:31.925Z,0
2017-11-08T02:47:53.754Z,0
2017-11-08T02:49:15.593Z,0
2017-11-08T02:50:37.435Z,0
2017-11-08T02:51:59.286Z,0
2017-11-08T02:53:21.771Z,0
2017-11-08T02:54:43.712Z,0
2017-11-08T02:56:05.192Z,0
2017-11-08T02:57:27.350Z,0
2017-11-08T02:58:48.885Z,0
2017-11-08T03:00:11.458Z,0
2017-11-08T03:01:33.343Z,0
2017-11-08T03:02:55.850Z,0
2017-11-08T03:04:18.129Z,0
2017-11-08T03:05:39.974Z,0
2017-11-08T03:07:01.986Z,0
2017-11-08T03:08:24.155Z,0
2017-11-08T03:09:46.752Z,0
2017-11-08T03:11:09.254Z,0
2017-11-08T03:12:31.134Z,0
2017-11-08T03:13:52.994Z,0
2017-11-08T03:15:14.854Z,0
2017-11-08T03:16:37.015Z,0
2017-11-08T03:17:59.535Z,0
2017-11-08T03:19:21.372Z,0
2017-11-08T03:20:43.855Z,0
2017-11-08T03:22:05.365Z,0
2017-11-08T03:23:27.529Z,0
2017-11-08T03:24:49.704Z,0
2017-11-08T03:26:11.694Z,0
2017-11-08T03:27:33.551Z,0
2017-11-08T03:28:55.491Z,0
2017-11-08T03:30:17.984Z,0
2017-11-08T03:31:39.884Z,0
2017-11-08T03:33:02.062Z,0
2017-11-08T03:34:24.223Z,0
2017-11-08T03:35:45.740Z,0
2017-11-08T03:37:07.338Z,0
2017-11-08T03:38:29.841Z,0
2017-11-08T03:39:51.403Z,0
2017-11-08T03:41:13.561Z,0
2017-11-08T03:42:35.536Z,0
2017-11-08T03:43:57.385Z,0
2017-11-08T03:45:20.160Z,0
2017-11-08T03:46:42.058Z,0
2017-11-08T03:48:03.892Z,0
2017-11-08T03:49:25.725Z,0
2017-11-08T03:50:47.890Z,0
2017-11-08T03:52:09.817Z,0
2017-11-08T03:53:32.083Z,0
2017-11-08T03:54:53.585Z,0
2017-11-08T03:56:16.094Z,0
2017-11-08T03:57:37.937Z,0
2017-11-08T03:58:59.857Z,0
2017-11-08T04:00:22.034Z,0
2017-11-08T04:01:43.877Z,0
2017-11-08T04:03:06.395Z,0
2017-11-08T04:04:27.899Z,0
2017-11-08T04:05:50.069Z,0
2017-11-08T04:07:11.913Z,0
2017-11-08T04:08:33.480Z,0
2017-11-08T04:09:55.674Z,0
2017-11-08T04:11:17.532Z,0
2017-11-08T04:12:39.040Z,0
2017-11-08T04:14:00.331Z,0
2017-11-08T04:15:22.176Z,0
2017-11-08T04:16:44.341Z,0
2017-11-08T04:18:06.869Z,0
2017-11-08T04:19:28.376Z,0
2017-11-08T04:20:50.560Z,0
2017-11-08T04:22:12.074Z,0
2017-11-08T04:23:33.897Z,0
2017-11-08T04:24:56.114Z,0
2017-11-08T04:26:18.608Z,0
2017-11-08T04:27:40.459Z,0
2017-11-08T04:29:02.290Z,0
2017-11-08T04:30:24.140Z,0
2017-11-08T04:31:45.648Z,0
2017-11-08T04:33:07.519Z,0
2017-11-08T04:34:30.028Z,0
2017-11-08T04:35:52.195Z,0
2017-11-08T04:37:14.151Z,0
2017-11-08T04:38:36.095Z,0
2017-11-08T04:39:58.590Z,0
2017-11-08T04:41:21.120Z,0
2017-11-08T04:42:42.959Z,0
2017-11-08T04:44:04.464Z,0
2017-11-08T04:45:26.895Z,0
2017-11-08T04:46:48.403Z,0
2017-11-08T04:48:10.255Z,0
2017-11-08T04:49:32.094Z,0
2017-11-08T04:50:53.939Z,0
2017-11-08T04:52:16.451Z,0
2017-11-08T04:53:37.615Z,0
2017-11-08T04:54:59.448Z,0
2017-11-08T04:56:21.925Z,0
2017-11-08T04:57:44.124Z,0
2017-11-08T04:59:06.040Z,0
2017-11-08T05:00:27.900Z,0
2017-11-08T05:01:50.406Z,0
2017-11-08T05:03:12.946Z,0
2017-11-08T05:04:34.451Z,0
2017-11-08T05:05:55.946Z,0
2017-11-08T05:07:18.115Z,0
2017-11-08T05:08:40.286Z,0
2017-11-08T05:10:02.136Z,0
2017-11-08T05:11:23.974Z,0
2017-11-08T05:12:45.478Z,0
2017-11-08T05:14:07.655Z,0
2017-11-08T05:15:29.878Z,0
2017-11-08T05:16:51.376Z,0
2017-11-08T05:18:14.131Z,0
2017-11-08T05:19:35.964Z,0
2017-11-08T05:20:57.465Z,0
2017-11-08T05:22:19.653Z,0
2017-11-08T05:23:42.221Z,0
2017-11-08T05:25:04.066Z,0
2017-11-08T05:26:26.247Z,0
2017-11-08T05:27:48.090Z,0
2017-11-08T05:29:09.583Z,0
2017-11-08T05:30:30.893Z,0
2017-11-08T05:31:53.455Z,0
2017-11-08T05:33:15.638Z,0
2017-11-08T05:34:37.477Z,0
2017-11-08T05:35:59.982Z,0
2017-11-08T05:37:21.876Z,0
2017-11-08T05:38:43.712Z,0
2017-11-08T05:40:05.585Z,0
2017-11-08T05:41:28.095Z,0
2017-11-08T05:42:50.640Z,0
2017-11-08T05:44:12.520Z,0
2017-11-08T05:45:35.028Z,0
2017-11-08T05:46:57.206Z,0
2017-11-08T05:48:18.709Z,60
2017-11-08T05:49:41.267Z,64
2017-11-08T05:51:03.791Z,0
2017-11-08T05:52:26.284Z,0
2017-11-08T05:53:47.811Z,0
2017-11-08T05:55:09.315Z,0
2017-11-08T05:56:31.489Z,0
2017-11-08T05:57:53.686Z,0
2017-11-08T05:59:15.940Z,0
2017-11-08T06:00:37.892Z,0
2017-11-08T06:02:00.077Z,0
2017-11-08T06:03:21.924Z,0
2017-11-08T06:04:43.754Z,4
2017-11-08T06:06:05.606Z,0
2017-11-08T06:07:27.216Z,4
2017-11-08T06:08:49.040Z,4
2017-11-08T06:10:10.972Z,4
2017-11-08T06:11:32.869Z,8
2017-11-08T06:12:54.419Z,8
2017-11-08T06:14:16.599Z,8
2017-11-08T06:15:38.817Z,8
2017-11-08T06:17:00.327Z,12
2017-11-08T06:18:22.526Z,16
2017-11-08T06:19:44.726Z,20
2017-11-08T06:21:06.565Z,24
2017-11-08T06:22:28.736Z,28
2017-11-08T06:23:50.626Z,36
2017-11-08T06:25:12.836Z,44
2017-11-08T06:26:34.988Z,56
2017-11-08T06:27:57.604Z,68
2017-11-08T06:29:19.185Z,76
2017-11-08T06:30:41.373Z,88
2017-11-08T06:32:02.886Z,100
2017-11-08T06:33:25.474Z,108
2017-11-08T06:34:47.072Z,120
2017-11-08T06:36:09.242Z,140
2017-11-08T06:37:31.096Z,156
2017-11-08T06:38:52.956Z,168
2017-11-08T06:40:15.186Z,164
2017-11-08T06:41:37.710Z,168
2017-11-08T06:42:59.547Z,188
2017-11-08T06:44:22.045Z,212
2017-11-08T06:45:43.984Z,240
2017-11-08T06:47:06.163Z,248
2017-11-08T06:48:28.000Z,252
2017-11-08T06:49:49.944Z,276
2017-11-08T06:51:12.725Z,312
2017-11-08T06:52:34.513Z,332
2017-11-08T06:53:56.454Z,348
2017-11-08T06:55:18.302Z,356
2017-11-08T06:56:40.825Z,380
2017-11-08T06:58:03.353Z,428
2017-11-08T06:59:25.566Z,472
2017-11-08T07:00:47.410Z,516
2017-11-08T07:02:09.854Z,572
2017-11-08T07:03:32.033Z,600
2017-11-08T07:04:54.201Z,656
2017-11-08T07:06:16.095Z,676
2017-11-08T07:07:38.667Z,696
2017-11-08T07:09:00.855Z,688
2017-11-08T07:10:23.038Z,716
2017-11-08T07:11:45.243Z,736
2017-11-08T07:13:07.465Z,784
2017-11-08T07:14:29.018Z,808
2017-11-08T07:15:50.523Z,832
2017-11-08T07:17:12.373Z,852
2017-11-08T07:18:34.784Z,872
2017-11-08T07:19:57.360Z,908
2017-11-08T07:21:19.686Z,960
2017-11-08T07:22:41.520Z,1080
2017-11-08T07:24:03.013Z,1140
2017-11-08T07:25:24.865Z,1248
2017-11-08T07:26:46.723Z,1272
2017-11-08T07:28:08.245Z,1248
2017-11-08T07:29:30.514Z,1288
2017-11-08T07:30:52.698Z,1392
2017-11-08T07:32:14.874Z,1524
2017-11-08T07:33:36.377Z,1624
2017-11-08T07:34:58.225Z,1664
2017-11-08T07:36:20.772Z,1684
2017-11-08T07:37:43.026Z,1848
2017-11-08T07:39:05.588Z,2088
2017-11-08T07:40:27.122Z,2248
2017-11-08T07:41:49.659Z,2308
2017-11-08T07:43:11.847Z,2484
2017-11-08T07:44:34.034Z,2364
2017-11-08T07:45:56.536Z,2208
2017-11-08T07:47:18.043Z,2208
2017-11-08T07:48:38.895Z,2240
2017-11-08T07:50:01.125Z,2308
2017-11-08T07:51:22.831Z,2272
2017-11-08T07:52:45.012Z,2364
2017-11-08T07:54:06.884Z,2372
2017-11-08T07:55:29.155Z,2548
2017-11-08T07:56:51.334Z,2592
2017-11-08T07:58:14.023Z,2776
2017-11-08T07:59:35.878Z,2848
2017-11-08T08:00:58.042Z,2900
2017-11-08T08:02:20.581Z,3164
2017-11-08T08:03:42.923Z,3336
2017-11-08T08:05:05.117Z,3272
2017-11-08T08:06:27.368Z,3228
2017-11-08T08:07:49.904Z,3176
2017-11-08T08:09:11.414Z,2776
2017-11-08T08:10:32.604Z,2728
2017-11-08T08:11:54.789Z,2864
2017-11-08T08:13:17.069Z,3140
2017-11-08T08:14:39.232Z,3352
2017-11-08T08:16:00.753Z,3388
2017-11-08T08:17:22.279Z,3152
2017-11-08T08:18:44.369Z,2748
2017-11-08T08:20:06.604Z,2492
2017-11-08T08:21:28.809Z,2328
2017-11-08T08:22:50.706Z,2360
2017-11-08T08:24:13.101Z,2288
2017-11-08T08:25:35.277Z,2192
2017-11-08T08:26:57.154Z,2368
2017-11-08T08:28:19.360Z,2640
2017-11-08T08:29:41.879Z,3228
2017-11-08T08:31:03.733Z,3248
2017-11-08T08:32:25.923Z,2776
2017-11-08T08:33:47.832Z,2444
2017-11-08T08:35:10.060Z,2124
2017-11-08T08:36:31.609Z,2052
2017-11-08T08:37:52.782Z,2068
2017-11-08T08:39:15.305Z,2044
2017-11-08T08:40:37.839Z,2344
2017-11-08T08:41:59.678Z,3096
2017-11-08T08:43:21.205Z,4616
2017-11-08T08:44:42.767Z,4188
2017-11-08T08:46:04.615Z,3836
2017-11-08T08:47:26.130Z,3808
2017-11-08T08:48:48.622Z,3696
2017-11-08T08:50:10.490Z,3932
2017-11-08T08:51:32.737Z,3628
2017-11-08T08:52:54.246Z,3716
2017-11-08T08:54:16.756Z,3292
2017-11-08T08:55:38.267Z,3220
2017-11-08T08:57:00.482Z,3108
2017-11-08T08:58:21.665Z,2532
2017-11-08T08:59:43.833Z,2364
2017-11-08T09:01:05.679Z,2176
2017-11-08T09:02:27.603Z,2352
2017-11-08T09:03:49.791Z,2040
2017-11-08T09:05:10.975Z,1988
2017-11-08T09:06:32.554Z,2120
2017-11-08T09:07:55.039Z,2252
2017-11-08T09:09:16.583Z,2520
2017-11-08T09:10:38.105Z,2624
2017-11-08T09:12:00.356Z,3164
2017-11-08T09:13:22.529Z,3524
2017-11-08T09:14:44.368Z,3632
2017-11-08T09:16:06.540Z,3996
2017-11-08T09:17:28.761Z,4168
2017-11-08T09:18:50.648Z,4528
2017-11-08T09:20:12.154Z,4380
2017-11-08T09:21:34.335Z,4408
2017-11-08T09:22:56.898Z,4300
2017-11-08T09:24:19.097Z,4136
2017-11-08T09:25:40.998Z,3760
2017-11-08T09:27:03.570Z,3944
2017-11-08T09:28:25.418Z,3392
2017-11-08T09:29:47.719Z,3532
2017-11-08T09:31:09.621Z,3296
2017-11-08T09:32:31.874Z,3000
2017-11-08T09:33:54.461Z,3336
2017-11-08T09:35:17.004Z,3744
2017-11-08T09:36:39.557Z,4060
2017-11-08T09:38:01.813Z,4384
2017-11-08T09:39:23.714Z,4760
2017-11-08T09:40:45.585Z,4840
2017-11-08T09:42:08.104Z,4728
2017-11-08T09:43:30.000Z,5444
2017-11-08T09:44:52.570Z,6320
2017-11-08T09:46:14.464Z,5752
2017-11-08T09:47:36.315Z,5652
2017-11-08T09:48:57.831Z,6060
2017-11-08T09:50:19.670Z,6860
2017-11-08T09:51:42.483Z,6832
2017-11-08T09:53:04.329Z,6440
2017-11-08T09:54:26.516Z,6232
2017-11-08T09:55:48.684Z,6576
2017-11-08T09:57:11.174Z,6620
2017-11-08T09:58:33.341Z,6496
2017-11-08T09:59:55.551Z,6496
2017-11-08T10:01:17.446Z,6904
2017-11-08T10:02:40.300Z,6864
2017-11-08T10:04:02.196Z,6564
2017-11-08T10:05:24.042Z,6680
2017-11-08T10:06:46.557Z,6900
2017-11-08T10:08:08.864Z,7324
2017-11-08T10:09:30.904Z,7396
2017-11-08T10:10:53.504Z,7624
2017-11-08T10:12:15.747Z,8224
2017-11-08T10:13:38.054Z,8316
2017-11-08T10:15:00.680Z,8404
2017-11-08T10:16:22.908Z,8404
2017-11-08T10:17:45.186Z,7828
2017-11-08T10:19:07.415Z,6804
2017-11-08T10:20:29.612Z,7112
2017-11-08T10:21:51.795Z,7668
2017-11-08T10:23:14.012Z,6800
2017-11-08T10:24:36.629Z,5748
2017-11-08T10:25:58.604Z,6356
2017-11-08T10:27:20.449Z,7324
2017-11-08T10:28:42.977Z,7496
2017-11-08T10:30:05.565Z,7148
2017-11-08T10:31:27.747Z,7420
2017-11-08T10:32:50.381Z,7236
2017-11-08T10:34:12.901Z,6156
2017-11-08T10:35:35.067Z,6304
2017-11-08T10:36:57.269Z,6888
2017-11-08T10:38:19.123Z,6776
2017-11-08T10:39:41.665Z,6812
2017-11-08T10:41:04.005Z,6016
2017-11-08T10:43:48.736Z,4944
2017-11-08T10:45:10.595Z,4928
2017-11-08T10:46:33.186Z,4580
2017-11-08T10:47:55.060Z,3988
2017-11-08T10:49:17.719Z,4004
2017-11-08T10:50:40.031Z,3664
2017-11-08T10:52:02.266Z,3824
2017-11-08T10:53:23.789Z,4752
2017-11-08T10:54:46.307Z,5480
2017-11-08T10:56:08.519Z,6068
2017-11-08T10:57:30.493Z,5812
2017-11-08T10:58:52.707Z,5640
2017-11-08T11:00:14.914Z,7300
2017-11-08T11:01:37.119Z,7436
2017-11-08T11:02:59.557Z,6744
2017-11-08T11:04:22.103Z,6380
2017-11-08T11:05:44.327Z,6540
2017-11-08T11:07:06.906Z,7100
2017-11-08T11:08:28.777Z,6872
2017-11-08T11:09:50.983Z,7380
2017-11-08T11:11:13.164Z,7032
2017-11-08T11:12:35.179Z,6532
2017-11-08T11:13:57.388Z,6544
2017-11-08T11:15:19.578Z,5908
2017-11-08T11:16:41.828Z,5704
2017-11-08T11:18:04.382Z,6160
2017-11-08T11:19:26.613Z,6516
2017-11-08T11:20:48.462Z,6592
2017-11-08T11:22:10.418Z,6752
2017-11-08T11:23:31.936Z,6376
2017-11-08T11:24:53.103Z,6436
2017-11-08T11:26:14.693Z,6444
2017-11-08T11:27:37.251Z,7008
2017-11-08T11:28:59.475Z,7152
2017-11-08T11:30:21.996Z,7356
2017-11-08T11:31:43.506Z,7596
2017-11-08T11:33:05.689Z,7744
2017-11-08T11:34:27.871Z,8420
2017-11-08T11:35:49.729Z,9216
2017-11-08T11:37:11.599Z,9608
2017-11-08T11:38:33.117Z,9332
2017-11-08T11:39:55.330Z,9144
2017-11-08T11:41:17.905Z,9336
2017-11-08T11:42:39.455Z,8960
2017-11-08T11:44:01.716Z,8612
2017-11-08T11:45:23.570Z,8264
2017-11-08T11:46:45.433Z,8424
2017-11-08T11:48:07.293Z,8868
2017-11-08T11:49:29.141Z,8180
2017-11-08T11:50:50.882Z,6524
2017-11-08T11:52:12.406Z,5088
2017-11-08T11:53:34.278Z,6228
2017-11-08T11:54:56.473Z,8456
2017-11-08T11:56:18.323Z,8468
2017-11-08T11:57:40.515Z,7552
2017-11-08T11:59:03.075Z,7560
2017-11-08T12:00:25.285Z,8884
2017-11-08T12:01:47.192Z,8468
2017-11-08T12:03:09.784Z,6576
2017-11-08T12:04:31.664Z,6528
2017-11-08T12:05:53.526Z,6432
2017-11-08T12:07:15.394Z,5732
2017-11-08T12:08:37.579Z,5488
2017-11-08T12:09:59.097Z,5140
2017-11-08T12:11:21.304Z,5292
2017-11-08T12:12:43.161Z,5160
2017-11-08T12:14:04.688Z,5348
2017-11-08T12:15:26.626Z,5284
2017-11-08T12:16:48.806Z,5564
2017-11-08T12:18:10.352Z,5636
2017-11-08T12:19:32.213Z,5412
2017-11-08T12:20:54.472Z,6008
2017-11-08T12:22:16.330Z,6000
2017-11-08T12:23:37.828Z,5364
2017-11-08T12:24:59.398Z,4968
2017-11-08T12:26:21.264Z,4660
2017-11-08T12:27:43.548Z,4036
2017-11-08T12:29:05.400Z,2820
2017-11-08T12:30:27.782Z,2604
2017-11-08T12:31:49.626Z,2588
2017-11-08T12:33:12.234Z,2080
2017-11-08T12:34:34.574Z,1684
2017-11-08T12:35:56.483Z,1464
2017-11-08T12:37:18.725Z,1464
2017-11-08T12:38:40.251Z,1420
2017-11-08T12:40:02.524Z,1484
2017-11-08T12:41:24.539Z,1556
2017-11-08T12:42:46.438Z,1372
2017-11-08T12:44:08.309Z,1296
2017-11-08T12:45:30.183Z,1360
2017-11-08T12:46:52.629Z,1404
2017-11-08T12:48:15.157Z,1468
2017-11-08T12:49:36.662Z,1424
2017-11-08T12:50:59.192Z,1536
2017-11-08T12:52:20.483Z,1664
2017-11-08T12:53:41.661Z,1680
2017-11-08T12:55:04.181Z,1832
2017-11-08T12:56:25.704Z,1840
2017-11-08T12:57:47.563Z,1688
2017-11-08T12:59:10.094Z,1584
2017-11-08T13:00:32.645Z,1536
2017-11-08T13:01:54.842Z,1440
2017-11-08T13:03:16.506Z,1432
2017-11-08T13:04:39.019Z,1588
2017-11-08T13:06:01.214Z,1820
2017-11-08T13:07:23.405Z,2112
2017-11-08T13:08:45.315Z,2064
2017-11-08T13:10:07.582Z,2044
2017-11-08T13:11:29.775Z,2036
2017-11-08T13:12:52.407Z,1940
2017-11-08T13:14:14.267Z,1812
2017-11-08T13:15:36.485Z,1808
2017-11-08T13:16:58.465Z,1716
2017-11-08T13:18:20.343Z,1656
2017-11-08T13:19:42.556Z,1588
2017-11-08T13:21:05.090Z,1516
2017-11-08T13:22:26.947Z,1596
2017-11-08T13:23:49.258Z,1568
2017-11-08T13:25:11.946Z,1480
2017-11-08T13:26:33.539Z,1428
2017-11-08T13:27:55.749Z,1392
2017-11-08T13:29:18.258Z,1484
2017-11-08T13:30:40.733Z,1512
2017-11-08T13:32:01.938Z,1624
2017-11-08T13:33:23.833Z,1536
2017-11-08T13:34:46.362Z,1424
2017-11-08T13:36:08.226Z,1516
2017-11-08T13:37:29.808Z,1532
2017-11-08T13:38:51.996Z,1532
2017-11-08T13:40:13.517Z,1392
2017-11-08T13:41:35.040Z,1452
2017-11-08T13:42:57.236Z,1544
2017-11-08T13:44:19.111Z,1560
2017-11-08T13:45:40.970Z,1552
2017-11-08T13:47:03.150Z,1460
2017-11-08T13:48:25.342Z,1312
2017-11-08T13:49:47.551Z,1252
2017-11-08T13:51:09.842Z,1240
2017-11-08T13:52:32.048Z,1244
2017-11-08T13:53:54.560Z,1224
2017-11-08T13:55:16.471Z,1372
2017-11-08T13:56:38.808Z,1440
2017-11-08T13:58:00.937Z,1160
2017-11-08T13:59:23.132Z,988
2017-11-08T14:00:45.041Z,1136
2017-11-08T14:02:06.888Z,1200
2017-11-08T14:03:28.401Z,1164
2017-11-08T14:04:50.243Z,1236
2017-11-08T14:06:12.415Z,1332
2017-11-08T14:07:34.632Z,1556
2017-11-08T14:08:57.192Z,2104
2017-11-08T14:10:19.072Z,2496
2017-11-08T14:11:41.624Z,2432
2017-11-08T14:13:03.818Z,2428
2017-11-08T14:14:25.814Z,2280
2017-11-08T14:15:48.003Z,2136
2017-11-08T14:17:09.544Z,1924
2017-11-08T14:18:31.432Z,1932
2017-11-08T14:19:53.317Z,2288
2017-11-08T14:21:15.192Z,2240
2017-11-08T14:22:36.741Z,1908
2017-11-08T14:23:58.652Z,1732
2017-11-08T14:25:20.543Z,1544
2017-11-08T14:26:42.083Z,1460
2017-11-08T14:28:04.593Z,1400
2017-11-08T14:29:27.120Z,1400
2017-11-08T14:30:49.315Z,1360
2017-11-08T14:32:11.853Z,1220
2017-11-08T14:33:33.354Z,1280
2017-11-08T14:34:55.544Z,1324
2017-11-08T14:36:17.743Z,1312
2017-11-08T14:37:39.833Z,1368
2017-11-08T14:39:01.689Z,1312
2017-11-08T14:40:22.883Z,1260
2017-11-08T14:41:44.787Z,1272
2017-11-08T14:43:07.010Z,1376
2017-11-08T14:44:28.880Z,1652
2017-11-08T14:45:50.720Z,1764
2017-11-08T14:47:13.380Z,1656
2017-11-08T14:48:35.622Z,1612
2017-11-08T14:49:57.234Z,1652
2017-11-08T14:51:18.488Z,1604
2017-11-08T14:52:40.675Z,1480
2017-11-08T14:54:02.597Z,1320
2017-11-08T14:55:24.824Z,1160
2017-11-08T14:56:47.042Z,932
2017-11-08T14:58:09.273Z,856
2017-11-08T14:59:31.522Z,724
2017-11-08T15:00:52.708Z,692
2017-11-08T15:02:14.615Z,680
2017-11-08T15:03:36.793Z,624
2017-11-08T15:04:58.795Z,596
2017-11-08T15:06:20.979Z,576
2017-11-08T15:07:42.854Z,524
2017-11-08T15:09:05.394Z,468
2017-11-08T15:10:27.601Z,424
2017-11-08T15:11:49.513Z,420
2017-11-08T15:13:11.389Z,404
2017-11-08T15:14:33.233Z,348
2017-11-08T15:15:54.795Z,312
2017-11-08T15:17:16.338Z,304
2017-11-08T15:18:38.232Z,300
2017-11-08T15:20:00.938Z,280
2017-11-08T15:21:23.127Z,228
2017-11-08T15:22:45.377Z,180
2017-11-08T15:24:07.965Z,164
2017-11-08T15:25:30.558Z,152
2017-11-08T15:26:52.817Z,140
2017-11-08T15:28:15.354Z,132
2017-11-08T15:29:37.218Z,120
2017-11-08T15:30:58.765Z,188
2017-11-08T15:32:20.347Z,116
2017-11-08T15:33:42.585Z,108
2017-11-08T15:35:04.839Z,92
2017-11-08T15:36:26.352Z,80
2017-11-08T15:37:48.585Z,72
2017-11-08T15:39:11.178Z,76
2017-11-08T15:40:32.718Z,68
2017-11-08T15:41:54.980Z,64
2017-11-08T15:43:17.519Z,52
2017-11-08T15:44:39.057Z,44
2017-11-08T15:46:01.323Z,36
2017-11-08T15:47:23.582Z,28
2017-11-08T15:48:45.800Z,24
2017-11-08T15:50:07.343Z,20
2017-11-08T15:51:29.217Z,20
2017-11-08T15:52:51.760Z,16
2017-11-08T15:54:13.002Z,16
2017-11-08T15:55:35.269Z,12
2017-11-08T15:56:57.487Z,12
2017-11-08T15:58:19.370Z,8
2017-11-08T15:59:41.713Z,8
2017-11-08T16:01:03.241Z,8
2017-11-08T16:02:25.870Z,4
2017-11-08T16:03:48.081Z,4
2017-11-08T16:05:10.310Z,4
2017-11-08T16:06:32.166Z,0
2017-11-08T16:07:54.705Z,4
2017-11-08T16:09:16.932Z,0
2017-11-08T16:10:39.125Z,0
2017-11-08T16:12:01.106Z,0
2017-11-08T16:13:22.652Z,0
2017-11-08T16:14:44.470Z,0
2017-11-08T16:16:07.053Z,0
2017-11-08T16:17:28.970Z,0
2017-11-08T16:18:51.542Z,0
2017-11-08T16:20:13.075Z,0
2017-11-08T16:21:35.379Z,0
2017-11-08T16:22:56.921Z,0
2017-11-08T16:24:18.807Z,0
2017-11-08T16:25:40.701Z,0
2017-11-08T16:27:03.399Z,0
2017-11-08T16:28:25.598Z,0
2017-11-08T16:29:47.808Z,0
2017-11-08T16:31:10.051Z,0
2017-11-08T16:32:31.953Z,0
2017-11-08T16:33:54.169Z,0
2017-11-08T16:35:16.021Z,0
2017-11-08T16:36:38.600Z,0
2017-11-08T16:38:00.810Z,0
2017-11-08T16:39:22.705Z,0
2017-11-08T16:40:44.572Z,60
2017-11-08T16:42:06.916Z,0
2017-11-08T16:43:29.159Z,0
2017-11-08T16:44:51.022Z,0
2017-11-08T16:46:12.899Z,0
2017-11-08T16:47:35.130Z,0
2017-11-08T16:48:56.989Z,0
2017-11-08T16:50:19.225Z,0
2017-11-08T16:51:41.480Z,0
2017-11-08T16:53:04.048Z,0
2017-11-08T16:54:25.920Z,0
2017-11-08T16:55:47.777Z,0
2017-11-08T16:57:10.354Z,0
2017-11-08T16:58:31.919Z,0
2017-11-08T16:59:54.122Z,0
2017-11-08T17:01:16.341Z,0
2017-11-08T17:02:38.566Z,0
2017-11-08T17:04:00.756Z,0
2017-11-08T17:05:22.938Z,0
2017-11-08T17:06:44.878Z,0
2017-11-08T17:08:06.757Z,0
2017-11-08T17:09:28.671Z,0
2017-11-08T17:10:51.217Z,64
2017-11-08T17:12:13.442Z,0
2017-11-08T17:13:35.368Z,0
2017-11-08T17:14:57.572Z,0
2017-11-08T17:16:19.787Z,0
2017-11-08T17:17:42.082Z,0
2017-11-08T17:19:04.811Z,0
2017-11-08T17:20:27.028Z,0
2017-11-08T17:21:49.607Z,0
2017-11-08T17:23:11.529Z,0
2017-11-08T17:24:33.724Z,0
2017-11-08T17:25:56.283Z,0
2017-11-08T17:27:18.518Z,0
2017-11-08T17:28:41.095Z,0
2017-11-08T17:30:03.307Z,0
2017-11-08T17:31:25.520Z,0
2017-11-08T17:32:47.049Z,0
2017-11-08T17:34:08.977Z,0
2017-11-08T17:35:30.889Z,0
2017-11-08T17:36:53.112Z,0
2017-11-08T17:38:15.922Z,0
2017-11-08T17:39:38.471Z,0
2017-11-08T17:41:00.073Z,60
2017-11-08T17:42:22.656Z,0
2017-11-08T17:43:44.569Z,0
2017-11-08T17:45:06.445Z,0
2017-11-08T17:46:29.052Z,0
2017-11-08T17:47:51.497Z,0
2017-11-08T17:49:13.375Z,60
2017-11-08T17:50:35.587Z,0
2017-11-08T17:51:57.476Z,0
2017-11-08T17:53:19.929Z,0
2017-11-08T17:54:42.380Z,0
2017-11-08T17:56:04.578Z,0
2017-11-08T17:57:26.890Z,0
2017-11-08T17:58:49.449Z,0
2017-11-08T18:00:11.658Z,0
2017-11-08T18:01:33.852Z,0
2017-11-08T18:02:56.378Z,0
2017-11-08T18:04:17.903Z,0
2017-11-08T18:05:40.150Z,0
2017-11-08T18:07:02.365Z,0
2017-11-08T18:08:24.570Z,0
2017-11-08T18:09:46.677Z,0
2017-11-08T18:11:08.886Z,0
2017-11-08T18:12:30.754Z,0
2017-11-08T18:13:52.689Z,0
2017-11-08T18:15:14.572Z,0
2017-11-08T18:16:36.205Z,0
2017-11-08T18:17:58.392Z,0
2017-11-08T18:19:19.933Z,0
2017-11-08T18:20:42.555Z,0
2017-11-08T18:22:04.816Z,0
2017-11-08T18:23:27.043Z,0
2017-11-08T18:24:49.598Z,0
2017-11-08T18:26:11.806Z,0
2017-11-08T18:27:34.024Z,0
2017-11-08T18:28:57.146Z,0
2017-11-08T18:30:19.028Z,0
2017-11-08T18:31:41.654Z,0
2017-11-08T18:33:03.849Z,0
2017-11-08T18:34:25.393Z,0
2017-11-08T18:35:47.621Z,0
2017-11-08T18:37:09.142Z,0
2017-11-08T18:38:31.016Z,0
2017-11-08T18:39:53.246Z,0
2017-11-08T18:41:15.205Z,0
2017-11-08T18:42:37.745Z,0
2017-11-08T18:43:59.296Z,0
2017-11-08T18:45:21.874Z,0
2017-11-08T18:46:44.106Z,0
2017-11-08T18:48:06.646Z,0
2017-11-08T18:49:28.852Z,0
2017-11-08T18:50:51.075Z,0
2017-11-08T18:52:13.282Z,0
2017-11-08T18:53:35.531Z,0
2017-11-08T18:54:57.395Z,0
2017-11-08T18:56:19.614Z,0
2017-11-08T18:57:40.905Z,0
2017-11-08T18:59:03.108Z,0
2017-11-08T19:00:25.340Z,0
2017-11-08T19:01:47.583Z,0
2017-11-08T19:03:09.798Z,0
2017-11-08T19:04:32.362Z,0
2017-11-08T19:05:54.226Z,0
2017-11-08T19:07:16.779Z,0
2017-11-08T19:08:39.402Z,0
2017-11-08T19:10:01.285Z,0
2017-11-08T19:11:23.204Z,0
2017-11-08T19:12:45.116Z,0
2017-11-08T19:14:07.417Z,0
2017-11-08T19:15:29.448Z,0
2017-11-08T19:16:51.115Z,0